Allakaket, AK

10:59 AM AKDT on October 25, 2014 (GMT -0800)
Bettles | Change Station
CLOSE
Current Station
Airport
Location: Bettles,
Elevation: 643 ft
Nearby Weather Stations

Elev 643 ft 66.91 °N, 151.53 °W | Updated 6 minutes ago

Overcast
Overcast
18 °F
Feels Like 8 °F
N
8
Wind Variable Wind from NNE

Today
High -- | Low -- °F
--% Chance of Precip.
Yesterday
High -- | Low -- °F
Precip. -- in
9:45 AM 6:03 PM
Waxing Crescent, 4% visible
Pressure 29.94 in
Visibility 10.0 miles
Clouds Mostly Cloudy 2200 ft
Overcast 3500 ft
Windchill 8 °F
Dew Point 13 °F
Humidity 81%
Rainfall 0.00 in
Snow Depth Not available.
UV 0 out of 12
Pollen Not available.
Air Quality Not available.
Flu Activity Local Activity
METAR PABT 251853Z 02007KT 10SM BKN022 OVC035 M08/M11 A2988 RMK AO2 SLP136 SHSN VC N T10781106

More Conditions Fewer Conditions

Pressure 29.94 in
Visibility 10.0 miles
Clouds Mostly Cloudy 2200 ft
Overcast 3500 ft
Windchill 8 °F
Dew Point 13 °F
Humidity 81%
Rainfall 0.00 in
Snow Depth Not available.
UV 0 out of 12
Pollen Not available.
Air Quality Not available.
Flu Activity Local Activity
METAR PABT 251853Z 02007KT 10SM BKN022 OVC035 M08/M11 A2988 RMK AO2 SLP136 SHSN VC N T10781106

More Conditions Fewer Conditions

10-Day Weather Forecast

Almanac

Astronomy

Oct. 25, 2014 Rise Set
Actual Time 9:45 AM AKDT 6:03 PM AKDT
Civil Twilight 8:48 AM AKDT 7:00 PM AKDT
Nautical Twilight 7:46 AM AKDT 8:01 PM AKDT
Astronomical Twilight 6:46 AM AKDT 9:01 PM AKDT
Moon 12:18 PM AKDT 6:47 PM AKDT
Length of Visible Light 10h 11m
Length of Day
8h 18m
Tomorrow will be 7m 27s shorter.
Waxing Crescent, 4% of the Moon is Illuminated
Today
Waxing Crescent
Oct 30
First Quarter
Nov 6
Full
Nov 14
Last Quarter
Nov 22
New

Today's Extremes

State Highs State Lows

Community

WunderPhotos

Upload Photos

1,764,954 photos uploaded!

Nearby

Snow Depth

Station Depth Elevation
Gobblers Knob 2 in 2030 ft
Coldfoot 5 in 1040 ft
Atigun Pass 14 in 4800 ft
Imnaviat Creek 23 in 3050 ft
Little Chena Ridge 6 in 2000 ft

Earthquake Activity

City Distance Mag. Time & Date
No recent earthquake activity has been reported nearby.
Minimum magnitude displayed is 2.5.

Coastal Water Temperatures

Place Temperature
No Stations Reporting

Nearby Weather Stations